sensor_id;sensor_type;location;lat;lon;timestamp;pressure;altitude;pressure_sealevel;temperature;humidity
57594;BME280;43423;46.510;6.686;2023-03-13T00:00:53;96390.69;;;8.30;78.59
57594;BME280;43423;46.510;6.686;2023-03-13T00:03:19;96386.66;;;8.17;79.39
57594;BME280;43423;46.510;6.686;2023-03-13T00:05:44;96389.88;;;8.15;79.83
57594;BME280;43423;46.510;6.686;2023-03-13T00:08:10;96390.91;;;8.18;78.55
57594;BME280;43423;46.510;6.686;2023-03-13T00:10:37;96380.34;;;8.01;81.37
57594;BME280;43423;46.510;6.686;2023-03-13T00:13:03;96384.13;;;8.04;81.38
57594;BME280;43423;46.510;6.686;2023-03-13T00:15:29;96379.41;;;8.04;81.41
57594;BME280;43423;46.510;6.686;2023-03-13T00:17:54;96386.22;;;8.09;80.62
57594;BME280;43423;46.510;6.686;2023-03-13T00:20:20;96387.75;;;8.10;80.33
57594;BME280;43423;46.510;6.686;2023-03-13T00:22:45;96392.13;;;8.17;79.56
57594;BME280;43423;46.510;6.686;2023-03-13T00:25:11;96388.94;;;8.18;79.87
57594;BME280;43423;46.510;6.686;2023-03-13T00:27:36;96383.28;;;8.22;79.42
57594;BME280;43423;46.510;6.686;2023-03-13T00:30:02;96386.75;;;8.31;79.51
57594;BME280;43423;46.510;6.686;2023-03-13T00:32:28;96391.72;;;8.42;79.78
57594;BME280;43423;46.510;6.686;2023-03-13T00:34:53;96393.66;;;8.51;79.39
57594;BME280;43423;46.510;6.686;2023-03-13T00:37:19;96383.75;;;8.53;80.22
57594;BME280;43423;46.510;6.686;2023-03-13T00:39:44;96376.09;;;8.57;79.85
57594;BME280;43423;46.510;6.686;2023-03-13T00:42:10;96387.66;;;8.61;78.83
57594;BME280;43423;46.510;6.686;2023-03-13T00:44:36;96387.06;;;8.57;79.95
57594;BME280;43423;46.510;6.686;2023-03-13T00:47:01;96377.91;;;8.60;79.30
57594;BME280;43423;46.510;6.686;2023-03-13T00:49:27;96389.16;;;8.62;79.90
57594;BME280;43423;46.510;6.686;2023-03-13T00:51:52;96394.66;;;8.62;80.59
57594;BME280;43423;46.510;6.686;2023-03-13T00:54:18;96390.00;;;8.54;80.02
57594;BME280;43423;46.510;6.686;2023-03-13T00:56:43;96399.38;;;8.62;76.04
57594;BME280;43423;46.510;6.686;2023-03-13T00:59:09;96385.19;;;8.63;74.56
57594;BME280;43423;46.510;6.686;2023-03-13T01:01:35;96392.41;;;8.76;75.11
57594;BME280;43423;46.510;6.686;2023-03-13T01:04:03;96400.00;;;8.81;75.05
57594;BME280;43423;46.510;6.686;2023-03-13T01:06:31;96393.88;;;8.86;74.37
57594;BME280;43423;46.510;6.686;2023-03-13T01:08:57;96395.88;;;8.85;75.75
57594;BME280;43423;46.510;6.686;2023-03-13T01:11:25;96386.41;;;8.86;75.98
57594;BME280;43423;46.510;6.686;2023-03-13T01:13:56;96369.66;;;8.84;78.38
57594;BME280;43423;46.510;6.686;2023-03-13T01:16:22;96373.19;;;8.85;78.48
57594;BME280;43423;46.510;6.686;2023-03-13T01:18:51;96368.06;;;8.78;77.82
57594;BME280;43423;46.510;6.686;2023-03-13T01:21:19;96371.84;;;8.80;78.55
57594;BME280;43423;46.510;6.686;2023-03-13T01:23:45;96359.91;;;8.83;78.48
57594;BME280;43423;46.510;6.686;2023-03-13T01:26:11;96362.50;;;8.87;78.17
57594;BME280;43423;46.510;6.686;2023-03-13T01:28:37;96344.53;;;8.86;78.19
57594;BME280;43423;46.510;6.686;2023-03-13T01:33:35;96322.28;;;8.84;75.93
57594;BME280;43423;46.510;6.686;2023-03-13T01:36:02;96325.03;;;8.84;76.01
57594;BME280;43423;46.510;6.686;2023-03-13T01:38:28;96312.66;;;8.88;76.60
57594;BME280;43423;46.510;6.686;2023-03-13T01:40:53;96302.25;;;8.92;76.33
57594;BME280;43423;46.510;6.686;2023-03-13T01:48:17;96303.78;;;8.79;79.19
57594;BME280;43423;46.510;6.686;2023-03-13T01:50:44;96308.19;;;8.76;78.72
57594;BME280;43423;46.510;6.686;2023-03-13T01:53:09;96329.38;;;8.76;79.92
57594;BME280;43423;46.510;6.686;2023-03-13T01:55:35;96336.28;;;8.71;78.51
57594;BME280;43423;46.510;6.686;2023-03-13T01:58:00;96330.59;;;8.75;78.97
57594;BME280;43423;46.510;6.686;2023-03-13T02:00:29;96341.84;;;8.77;79.01
57594;BME280;43423;46.510;6.686;2023-03-13T02:03:02;96345.38;;;8.77;79.77
57594;BME280;43423;46.510;6.686;2023-03-13T02:05:29;96338.19;;;8.80;77.77
57594;BME280;43423;46.510;6.686;2023-03-13T02:08:01;96351.63;;;8.92;77.54
57594;BME280;43423;46.510;6.686;2023-03-13T02:10:28;96351.06;;;8.88;78.35
57594;BME280;43423;46.510;6.686;2023-03-13T02:12:56;96324.88;;;8.87;78.12
57594;BME280;43423;46.510;6.686;2023-03-13T02:15:24;96319.25;;;8.82;79.78
57594;BME280;43423;46.510;6.686;2023-03-13T02:17:50;96313.03;;;8.81;78.96
57594;BME280;43423;46.510;6.686;2023-03-13T02:20:18;96314.16;;;8.75;78.25
57594;BME280;43423;46.510;6.686;2023-03-13T02:23:10;96319.91;;;8.77;78.92
57594;BME280;43423;46.510;6.686;2023-03-13T02:25:46;96328.53;;;8.70;78.17
57594;BME280;43423;46.510;6.686;2023-03-13T02:28:16;96315.66;;;8.76;77.21
57594;BME280;43423;46.510;6.686;2023-03-13T02:30:43;96331.47;;;8.81;77.88
57594;BME280;43423;46.510;6.686;2023-03-13T02:33:11;96327.97;;;8.80;79.13
57594;BME280;43423;46.510;6.686;2023-03-13T02:35:37;96322.47;;;8.80;79.72
57594;BME280;43423;46.510;6.686;2023-03-13T02:38:07;96295.78;;;8.66;78.73
57594;BME280;43423;46.510;6.686;2023-03-13T02:40:37;96276.72;;;8.72;77.41
57594;BME280;43423;46.510;6.686;2023-03-13T02:43:31;96265.09;;;8.77;73.31
57594;BME280;43423;46.510;6.686;2023-03-13T02:46:13;96261.41;;;8.80;71.46
57594;BME280;43423;46.510;6.686;2023-03-13T02:48:44;96250.84;;;8.87;71.17
57594;BME280;43423;46.510;6.686;2023-03-13T02:51:28;96245.34;;;8.87;71.58
57594;BME280;43423;46.510;6.686;2023-03-13T02:54:00;96240.78;;;8.84;70.47
57594;BME280;43423;46.510;6.686;2023-03-13T02:56:29;96243.84;;;8.86;68.97
57594;BME280;43423;46.510;6.686;2023-03-13T02:58:55;96235.03;;;8.82;73.51
57594;BME280;43423;46.510;6.686;2023-03-13T03:01:21;96237.50;;;8.80;73.80
57594;BME280;43423;46.510;6.686;2023-03-13T03:03:47;96232.94;;;8.62;75.69
57594;BME280;43423;46.510;6.686;2023-03-13T03:06:13;96236.25;;;8.66;75.76
57594;BME280;43423;46.510;6.686;2023-03-13T03:08:38;96242.31;;;8.71;73.52
57594;BME280;43423;46.510;6.686;2023-03-13T03:11:06;96239.25;;;8.68;75.22
57594;BME280;43423;46.510;6.686;2023-03-13T03:13:31;96234.94;;;8.62;77.02
57594;BME280;43423;46.510;6.686;2023-03-13T03:15:58;96244.56;;;8.57;77.33
57594;BME280;43423;46.510;6.686;2023-03-13T03:18:23;96249.47;;;8.53;77.58
57594;BME280;43423;46.510;6.686;2023-03-13T03:20:49;96257.97;;;8.55;77.37
57594;BME280;43423;46.510;6.686;2023-03-13T03:23:15;96231.59;;;8.58;74.79
57594;BME280;43423;46.510;6.686;2023-03-13T03:25:40;96245.81;;;8.71;73.92
57594;BME280;43423;46.510;6.686;2023-03-13T03:28:06;96246.38;;;8.75;74.91
57594;BME280;43423;46.510;6.686;2023-03-13T03:30:31;96251.38;;;8.77;73.18
57594;BME280;43423;46.510;6.686;2023-03-13T03:32:57;96245.69;;;8.65;75.00
57594;BME280;43423;46.510;6.686;2023-03-13T03:35:23;96237.88;;;8.73;73.94
57594;BME280;43423;46.510;6.686;2023-03-13T03:37:48;96239.66;;;8.76;72.65
57594;BME280;43423;46.510;6.686;2023-03-13T03:40:14;96228.88;;;8.73;72.68
57594;BME280;43423;46.510;6.686;2023-03-13T03:42:39;96227.47;;;8.77;71.35
57594;BME280;43423;46.510;6.686;2023-03-13T03:45:05;96226.25;;;8.78;72.95
57594;BME280;43423;46.510;6.686;2023-03-13T03:47:31;96213.00;;;8.77;70.78
57594;BME280;43423;46.510;6.686;2023-03-13T03:49:56;96221.53;;;8.79;72.72
57594;BME280;43423;46.510;6.686;2023-03-13T03:52:22;96214.97;;;8.76;72.10
57594;BME280;43423;46.510;6.686;2023-03-13T03:54:47;96226.06;;;8.82;70.88
57594;BME280;43423;46.510;6.686;2023-03-13T03:57:13;96228.31;;;8.83;69.86
57594;BME280;43423;46.510;6.686;2023-03-13T03:59:38;96223.53;;;8.93;68.51
57594;BME280;43423;46.510;6.686;2023-03-13T04:02:04;96226.34;;;8.99;69.36
57594;BME280;43423;46.510;6.686;2023-03-13T04:04:30;96224.81;;;8.98;69.43
57594;BME280;43423;46.510;6.686;2023-03-13T04:06:55;96222.19;;;9.03;69.67
57594;BME280;43423;46.510;6.686;2023-03-13T04:09:21;96215.47;;;9.04;69.77
57594;BME280;43423;46.510;6.686;2023-03-13T04:11:46;96231.28;;;9.09;70.92
57594;BME280;43423;46.510;6.686;2023-03-13T04:14:12;96234.19;;;9.20;70.42
57594;BME280;43423;46.510;6.686;2023-03-13T04:16:37;96239.66;;;9.20;69.58
57594;BME280;43423;46.510;6.686;2023-03-13T04:19:03;96243.66;;;9.19;72.61
57594;BME280;43423;46.510;6.686;2023-03-13T04:21:28;96237.13;;;9.17;71.16
57594;BME280;43423;46.510;6.686;2023-03-13T04:23:54;96236.38;;;9.16;70.59
57594;BME280;43423;46.510;6.686;2023-03-13T04:26:19;96242.13;;;9.18;70.89
57594;BME280;43423;46.510;6.686;2023-03-13T04:28:45;96248.66;;;9.21;70.77
57594;BME280;43423;46.510;6.686;2023-03-13T04:31:10;96258.59;;;9.18;71.51
57594;BME280;43423;46.510;6.686;2023-03-13T04:33:36;96260.38;;;9.21;70.27
57594;BME280;43423;46.510;6.686;2023-03-13T04:36:02;96248.28;;;9.28;70.99
57594;BME280;43423;46.510;6.686;2023-03-13T04:38:28;96253.19;;;9.24;70.23
57594;BME280;43423;46.510;6.686;2023-03-13T04:40:53;96260.47;;;9.27;71.22
57594;BME280;43423;46.510;6.686;2023-03-13T04:43:19;96259.25;;;9.28;70.30
57594;BME280;43423;46.510;6.686;2023-03-13T04:45:44;96254.91;;;9.21;72.07
57594;BME280;43423;46.510;6.686;2023-03-13T04:48:11;96263.41;;;9.23;71.17
57594;BME280;43423;46.510;6.686;2023-03-13T04:50:37;96268.59;;;9.21;69.86
57594;BME280;43423;46.510;6.686;2023-03-13T04:53:02;96262.25;;;9.15;72.31
57594;BME280;43423;46.510;6.686;2023-03-13T04:55:28;96254.53;;;9.14;72.60
57594;BME280;43423;46.510;6.686;2023-03-13T04:57:53;96248.28;;;9.13;71.92
57594;BME280;43423;46.510;6.686;2023-03-13T05:00:19;96251.78;;;9.14;73.35
57594;BME280;43423;46.510;6.686;2023-03-13T05:02:45;96248.56;;;9.15;72.67
57594;BME280;43423;46.510;6.686;2023-03-13T05:05:10;96242.31;;;9.15;73.21
57594;BME280;43423;46.510;6.686;2023-03-13T05:07:36;96254.72;;;9.10;72.42
57594;BME280;43423;46.510;6.686;2023-03-13T05:10:01;96258.00;;;9.14;71.61
57594;BME280;43423;46.510;6.686;2023-03-13T05:12:27;96254.72;;;9.10;73.04
57594;BME280;43423;46.510;6.686;2023-03-13T05:14:52;96252.53;;;9.14;72.13
57594;BME280;43423;46.510;6.686;2023-03-13T05:17:18;96254.03;;;9.15;73.03
57594;BME280;43423;46.510;6.686;2023-03-13T05:19:43;96258.78;;;9.15;72.04
57594;BME280;43423;46.510;6.686;2023-03-13T05:22:09;96255.56;;;9.16;72.46
57594;BME280;43423;46.510;6.686;2023-03-13T05:24:35;96248.84;;;9.17;72.89
57594;BME280;43423;46.510;6.686;2023-03-13T05:27:00;96256.78;;;9.15;72.38
57594;BME280;43423;46.510;6.686;2023-03-13T05:29:26;96257.63;;;9.21;71.61
57594;BME280;43423;46.510;6.686;2023-03-13T05:31:52;96253.88;;;9.19;72.20
57594;BME280;43423;46.510;6.686;2023-03-13T05:34:18;96267.84;;;9.21;71.29
57594;BME280;43423;46.510;6.686;2023-03-13T05:36:43;96257.91;;;9.23;71.50
57594;BME280;43423;46.510;6.686;2023-03-13T05:39:09;96247.41;;;9.22;71.58
57594;BME280;43423;46.510;6.686;2023-03-13T05:41:34;96236.66;;;9.18;72.94
57594;BME280;43423;46.510;6.686;2023-03-13T05:44:00;96232.69;;;9.19;72.81
57594;BME280;43423;46.510;6.686;2023-03-13T05:46:26;96231.16;;;9.18;73.26
57594;BME280;43423;46.510;6.686;2023-03-13T05:48:51;96226.72;;;9.21;73.50
57594;BME280;43423;46.510;6.686;2023-03-13T05:51:17;96216.75;;;9.23;72.67
57594;BME280;43423;46.510;6.686;2023-03-13T05:53:43;96209.75;;;9.22;71.92
57594;BME280;43423;46.510;6.686;2023-03-13T05:56:09;96206.09;;;9.26;72.27
57594;BME280;43423;46.510;6.686;2023-03-13T05:58:35;96211.47;;;9.35;71.90
57594;BME280;43423;46.510;6.686;2023-03-13T06:01:08;96217.22;;;9.37;71.88
57594;BME280;43423;46.510;6.686;2023-03-13T06:03:34;96222.16;;;9.33;72.45
57594;BME280;43423;46.510;6.686;2023-03-13T06:06:00;96220.72;;;9.37;72.66
57594;BME280;43423;46.510;6.686;2023-03-13T06:08:25;96212.00;;;9.39;71.68
57594;BME280;43423;46.510;6.686;2023-03-13T06:10:52;96199.53;;;9.38;72.72
57594;BME280;43423;46.510;6.686;2023-03-13T06:13:17;96197.06;;;9.40;73.04
57594;BME280;43423;46.510;6.686;2023-03-13T06:15:49;96198.28;;;9.39;72.77
57594;BME280;43423;46.510;6.686;2023-03-13T06:18:15;96206.25;;;9.37;73.57
57594;BME280;43423;46.510;6.686;2023-03-13T06:20:40;96194.59;;;9.42;73.06
57594;BME280;43423;46.510;6.686;2023-03-13T06:23:06;96190.63;;;9.43;72.68
57594;BME280;43423;46.510;6.686;2023-03-13T06:25:33;96191.38;;;9.43;73.13
57594;BME280;43423;46.510;6.686;2023-03-13T06:27:59;96180.69;;;9.45;73.16
57594;BME280;43423;46.510;6.686;2023-03-13T06:30:24;96174.69;;;9.47;72.80
57594;BME280;43423;46.510;6.686;2023-03-13T06:32:50;96172.25;;;9.49;72.19
57594;BME280;43423;46.510;6.686;2023-03-13T06:35:15;96176.78;;;9.52;72.06
57594;BME280;43423;46.510;6.686;2023-03-13T06:37:41;96177.34;;;9.56;71.70
57594;BME280;43423;46.510;6.686;2023-03-13T06:40:07;96167.66;;;9.61;71.33
57594;BME280;43423;46.510;6.686;2023-03-13T06:42:32;96164.44;;;9.62;71.31
57594;BME280;43423;46.510;6.686;2023-03-13T06:44:58;96171.25;;;9.67;70.95
57594;BME280;43423;46.510;6.686;2023-03-13T06:47:23;96158.28;;;9.67;72.76
57594;BME280;43423;46.510;6.686;2023-03-13T06:49:49;96152.03;;;9.67;70.94
57594;BME280;43423;46.510;6.686;2023-03-13T06:52:14;96166.09;;;9.74;70.96
57594;BME280;43423;46.510;6.686;2023-03-13T06:54:40;96163.16;;;9.78;72.46
57594;BME280;43423;46.510;6.686;2023-03-13T06:57:06;96154.91;;;9.78;71.56
57594;BME280;43423;46.510;6.686;2023-03-13T06:59:31;96150.16;;;9.78;71.83
57594;BME280;43423;46.510;6.686;2023-03-13T07:01:57;96161.22;;;9.84;70.31
57594;BME280;43423;46.510;6.686;2023-03-13T07:04:22;96162.25;;;9.87;70.53
57594;BME280;43423;46.510;6.686;2023-03-13T07:06:50;96148.06;;;9.88;71.12
57594;BME280;43423;46.510;6.686;2023-03-13T07:09:15;96143.31;;;9.89;70.92
57594;BME280;43423;46.510;6.686;2023-03-13T07:11:41;96144.69;;;9.78;71.16
57594;BME280;43423;46.510;6.686;2023-03-13T07:14:06;96140.56;;;9.89;71.28
57594;BME280;43423;46.510;6.686;2023-03-13T07:16:32;96138.84;;;9.91;71.80
57594;BME280;43423;46.510;6.686;2023-03-13T07:18:57;96149.16;;;9.96;71.49
57594;BME280;43423;46.510;6.686;2023-03-13T07:21:23;96145.91;;;9.98;70.84
57594;BME280;43423;46.510;6.686;2023-03-13T07:23:48;96140.97;;;10.02;70.86
57594;BME280;43423;46.510;6.686;2023-03-13T07:26:15;96148.53;;;10.07;69.98
57594;BME280;43423;46.510;6.686;2023-03-13T07:28:41;96146.59;;;10.13;71.68
57594;BME280;43423;46.510;6.686;2023-03-13T07:31:16;96137.59;;;10.13;70.25
57594;BME280;43423;46.510;6.686;2023-03-13T07:33:41;96135.94;;;10.21;69.75
57594;BME280;43423;46.510;6.686;2023-03-13T07:36:08;96138.00;;;10.26;69.98
57594;BME280;43423;46.510;6.686;2023-03-13T07:38:34;96126.59;;;10.33;70.04
57594;BME280;43423;46.510;6.686;2023-03-13T07:41:01;96113.66;;;10.39;69.31
57594;BME280;43423;46.510;6.686;2023-03-13T07:43:26;96127.63;;;10.36;67.34
57594;BME280;43423;46.510;6.686;2023-03-13T07:46:01;96135.34;;;10.11;65.87
57594;BME280;43423;46.510;6.686;2023-03-13T07:48:32;96125.63;;;10.16;67.88
57594;BME280;43423;46.510;6.686;2023-03-13T07:50:58;96113.50;;;10.22;68.56
57594;BME280;43423;46.510;6.686;2023-03-13T07:53:25;96111.06;;;10.30;68.02
57594;BME280;43423;46.510;6.686;2023-03-13T07:58:26;96109.72;;;10.46;67.48
57594;BME280;43423;46.510;6.686;2023-03-13T08:00:52;96103.03;;;10.52;66.47
57594;BME280;43423;46.510;6.686;2023-03-13T08:03:18;96098.13;;;10.62;64.36
57594;BME280;43423;46.510;6.686;2023-03-13T08:05:44;96086.75;;;10.80;64.25
57594;BME280;43423;46.510;6.686;2023-03-13T08:08:10;96088.97;;;11.08;62.90
57594;BME280;43423;46.510;6.686;2023-03-13T08:10:36;96086.66;;;11.43;64.62
57594;BME280;43423;46.510;6.686;2023-03-13T08:13:01;96083.28;;;11.71;62.11
57594;BME280;43423;46.510;6.686;2023-03-13T08:15:27;96079.88;;;11.87;61.26
57594;BME280;43423;46.510;6.686;2023-03-13T08:17:54;96082.66;;;11.98;60.23
57594;BME280;43423;46.510;6.686;2023-03-13T08:20:20;96089.94;;;12.07;60.04
57594;BME280;43423;46.510;6.686;2023-03-13T08:22:45;96096.25;;;12.19;60.48
57594;BME280;43423;46.510;6.686;2023-03-13T08:25:12;96094.94;;;11.97;57.96
57594;BME280;43423;46.510;6.686;2023-03-13T08:27:37;96093.91;;;11.89;58.40
57594;BME280;43423;46.510;6.686;2023-03-13T08:30:03;96090.41;;;11.94;59.20
57594;BME280;43423;46.510;6.686;2023-03-13T08:32:32;96089.88;;;11.90;57.33
57594;BME280;43423;46.510;6.686;2023-03-13T08:34:57;96084.44;;;12.01;58.70
57594;BME280;43423;46.510;6.686;2023-03-13T08:37:23;96078.94;;;12.24;59.40
57594;BME280;43423;46.510;6.686;2023-03-13T08:39:48;96085.47;;;12.32;58.41
57594;BME280;43423;46.510;6.686;2023-03-13T08:42:14;96081.72;;;12.29;57.81
57594;BME280;43423;46.510;6.686;2023-03-13T08:44:39;96081.22;;;12.37;57.97
57594;BME280;43423;46.510;6.686;2023-03-13T08:47:06;96080.25;;;12.34;57.57
57594;BME280;43423;46.510;6.686;2023-03-13T08:49:32;96070.72;;;12.35;56.68
57594;BME280;43423;46.510;6.686;2023-03-13T08:51:57;96073.50;;;12.57;57.39
57594;BME280;43423;46.510;6.686;2023-03-13T08:54:23;96057.94;;;12.54;58.05
57594;BME280;43423;46.510;6.686;2023-03-13T08:56:48;96024.84;;;12.66;59.65
57594;BME280;43423;46.510;6.686;2023-03-13T08:59:14;96022.31;;;12.90;57.78
57594;BME280;43423;46.510;6.686;2023-03-13T09:01:40;96015.72;;;13.10;56.71
57594;BME280;43423;46.510;6.686;2023-03-13T09:04:06;96034.56;;;13.11;56.14
57594;BME280;43423;46.510;6.686;2023-03-13T09:06:33;96041.06;;;13.14;56.83
57594;BME280;43423;46.510;6.686;2023-03-13T09:09:00;96029.28;;;13.25;56.82
57594;BME280;43423;46.510;6.686;2023-03-13T09:11:25;96027.28;;;13.08;55.97
57594;BME280;43423;46.510;6.686;2023-03-13T09:13:52;96013.78;;;12.88;54.89
57594;BME280;43423;46.510;6.686;2023-03-13T09:16:21;96012.81;;;12.69;58.07
57594;BME280;43423;46.510;6.686;2023-03-13T09:18:48;96011.03;;;12.71;58.34
57594;BME280;43423;46.510;6.686;2023-03-13T09:21:19;96016.06;;;12.62;59.63
57594;BME280;43423;46.510;6.686;2023-03-13T09:23:45;96006.06;;;12.64;59.05
57594;BME280;43423;46.510;6.686;2023-03-13T09:26:12;96008.31;;;12.66;57.50
57594;BME280;43423;46.510;6.686;2023-03-13T09:28:38;95995.53;;;12.57;57.73
57594;BME280;43423;46.510;6.686;2023-03-13T09:31:11;96002.03;;;12.48;57.23
57594;BME280;43423;46.510;6.686;2023-03-13T09:33:37;95989.75;;;12.49;57.73
57594;BME280;43423;46.510;6.686;2023-03-13T09:36:04;95999.28;;;12.48;58.17
57594;BME280;43423;46.510;6.686;2023-03-13T09:38:30;95993.75;;;12.54;59.08
57594;BME280;43423;46.510;6.686;2023-03-13T09:41:01;95990.75;;;12.57;57.99
57594;BME280;43423;46.510;6.686;2023-03-13T09:43:49;95973.97;;;12.50;58.47
57594;BME280;43423;46.510;6.686;2023-03-13T09:49:11;95988.75;;;12.58;57.54
57594;BME280;43423;46.510;6.686;2023-03-13T09:51:40;95979.72;;;12.57;57.48
57594;BME280;43423;46.510;6.686;2023-03-13T09:54:19;95980.72;;;12.54;56.78
57594;BME280;43423;46.510;6.686;2023-03-13T09:56:51;95975.69;;;12.47;57.86
57594;BME280;43423;46.510;6.686;2023-03-13T09:59:28;95965.69;;;12.50;57.95
57594;BME280;43423;46.510;6.686;2023-03-13T10:01:59;95962.41;;;12.68;57.94
57594;BME280;43423;46.510;6.686;2023-03-13T10:04:31;95958.13;;;12.73;57.10
57594;BME280;43423;46.510;6.686;2023-03-13T10:07:01;95943.50;;;13.00;58.95
57594;BME280;43423;46.510;6.686;2023-03-13T10:09:32;95946.72;;;13.16;57.92
57594;BME280;43423;46.510;6.686;2023-03-13T10:14:47;95957.09;;;13.56;55.23
57594;BME280;43423;46.510;6.686;2023-03-13T10:17:43;95953.56;;;13.61;55.14
57594;BME280;43423;46.510;6.686;2023-03-13T10:22:35;95933.59;;;13.80;56.07
57594;BME280;43423;46.510;6.686;2023-03-13T10:25:20;95923.38;;;13.69;56.13
57594;BME280;43423;46.510;6.686;2023-03-13T10:27:50;95918.28;;;13.79;54.82
57594;BME280;43423;46.510;6.686;2023-03-13T10:30:23;95918.06;;;13.77;53.85
57594;BME280;43423;46.510;6.686;2023-03-13T10:32:49;95904.34;;;13.60;54.21
57594;BME280;43423;46.510;6.686;2023-03-13T10:35:23;95895.00;;;13.68;54.95
57594;BME280;43423;46.510;6.686;2023-03-13T10:37:49;95896.56;;;13.94;53.37
57594;BME280;43423;46.510;6.686;2023-03-13T10:40:24;95891.28;;;14.26;54.87
57594;BME280;43423;46.510;6.686;2023-03-13T10:42:51;95898.31;;;14.57;54.62
57594;BME280;43423;46.510;6.686;2023-03-13T10:45:19;95891.28;;;14.56;53.73
57594;BME280;43423;46.510;6.686;2023-03-13T10:47:53;95882.41;;;14.63;53.50
57594;BME280;43423;46.510;6.686;2023-03-13T10:50:23;95874.91;;;14.58;53.94
57594;BME280;43423;46.510;6.686;2023-03-13T10:52:50;95869.63;;;14.30;53.76
57594;BME280;43423;46.510;6.686;2023-03-13T10:55:21;95864.63;;;14.53;54.54
57594;BME280;43423;46.510;6.686;2023-03-13T10:58:01;95855.50;;;14.34;53.83
57594;BME280;43423;46.510;6.686;2023-03-13T11:00:37;95850.78;;;14.29;53.48
57594;BME280;43423;46.510;6.686;2023-03-13T11:03:06;95840.19;;;14.33;54.22
57594;BME280;43423;46.510;6.686;2023-03-13T11:05:40;95832.28;;;14.18;54.08
57594;BME280;43423;46.510;6.686;2023-03-13T11:10:52;95822.91;;;14.51;54.75
57594;BME280;43423;46.510;6.686;2023-03-13T11:13:36;95829.19;;;14.51;54.73
57594;BME280;43423;46.510;6.686;2023-03-13T11:16:12;95826.00;;;14.42;54.53
57594;BME280;43423;46.510;6.686;2023-03-13T11:24:34;95809.41;;;14.47;54.85
57594;BME280;43423;46.510;6.686;2023-03-13T11:32:54;95812.72;;;15.40;51.38
57594;BME280;43423;46.510;6.686;2023-03-13T11:35:25;95817.56;;;15.53;51.13
57594;BME280;43423;46.510;6.686;2023-03-13T11:37:57;95812.00;;;15.72;50.89
57594;BME280;43423;46.510;6.686;2023-03-13T11:40:35;95811.72;;;15.75;50.83
57594;BME280;43423;46.510;6.686;2023-03-13T11:43:16;95811.09;;;15.82;50.69
57594;BME280;43423;46.510;6.686;2023-03-13T11:49:08;95800.41;;;15.86;50.12
57594;BME280;43423;46.510;6.686;2023-03-13T11:57:04;95787.47;;;16.21;51.44
57594;BME280;43423;46.510;6.686;2023-03-13T11:59:44;95778.72;;;16.04;52.41
57594;BME280;43423;46.510;6.686;2023-03-13T12:04:46;95762.84;;;16.70;52.87
57594;BME280;43423;46.510;6.686;2023-03-13T12:09:50;95734.50;;;16.85;51.08
57594;BME280;43423;46.510;6.686;2023-03-13T12:15:23;95720.56;;;16.11;50.65
57594;BME280;43423;46.510;6.686;2023-03-13T12:17:59;95705.28;;;16.58;49.82
57594;BME280;43423;46.510;6.686;2023-03-13T12:20:33;95685.56;;;16.35;52.24
57594;BME280;43423;46.510;6.686;2023-03-13T12:23:13;95686.41;;;16.90;48.95
57594;BME280;43423;46.510;6.686;2023-03-13T12:25:46;95680.34;;;17.13;50.05
57594;BME280;43423;46.510;6.686;2023-03-13T12:30:56;95665.06;;;17.40;49.37
57594;BME280;43423;46.510;6.686;2023-03-13T12:33:30;95653.25;;;17.47;48.02
57594;BME280;43423;46.510;6.686;2023-03-13T12:36:12;95647.69;;;17.06;48.88
57594;BME280;43423;46.510;6.686;2023-03-13T12:38:45;95648.19;;;17.67;49.77
57594;BME280;43423;46.510;6.686;2023-03-13T12:43:48;95633.25;;;17.49;48.66
57594;BME280;43423;46.510;6.686;2023-03-13T12:46:30;95632.88;;;18.02;48.05
57594;BME280;43423;46.510;6.686;2023-03-13T12:54:38;95586.84;;;18.37;47.60
57594;BME280;43423;46.510;6.686;2023-03-13T12:59:54;95561.63;;;17.63;49.24
57594;BME280;43423;46.510;6.686;2023-03-13T13:02:25;95552.69;;;17.56;51.06
57594;BME280;43423;46.510;6.686;2023-03-13T13:04:53;95537.56;;;17.65;49.88
57594;BME280;43423;46.510;6.686;2023-03-13T13:07:30;95530.03;;;17.73;48.40
57594;BME280;43423;46.510;6.686;2023-03-13T13:12:36;95519.44;;;17.43;48.74
57594;BME280;43423;46.510;6.686;2023-03-13T13:15:16;95522.63;;;17.76;47.93
57594;BME280;43423;46.510;6.686;2023-03-13T13:17:57;95522.25;;;17.72;49.63
57594;BME280;43423;46.510;6.686;2023-03-13T13:25:40;95495.06;;;17.57;48.37
57594;BME280;43423;46.510;6.686;2023-03-13T13:30:49;95484.16;;;17.95;48.26
57594;BME280;43423;46.510;6.686;2023-03-13T13:35:45;95477.63;;;18.67;47.64
57594;BME280;43423;46.510;6.686;2023-03-13T13:38:30;95474.66;;;18.73;46.63
57594;BME280;43423;46.510;6.686;2023-03-13T13:43:42;95476.13;;;19.04;45.52
57594;BME280;43423;46.510;6.686;2023-03-13T13:46:28;95470.19;;;19.00;45.85
57594;BME280;43423;46.510;6.686;2023-03-13T13:51:31;95444.66;;;17.97;48.21
57594;BME280;43423;46.510;6.686;2023-03-13T13:53:59;95436.69;;;18.08;47.92
57594;BME280;43423;46.510;6.686;2023-03-13T13:56:29;95430.63;;;18.48;47.99
57594;BME280;43423;46.510;6.686;2023-03-13T14:02:28;95413.34;;;18.88;45.86
57594;BME280;43423;46.510;6.686;2023-03-13T14:05:03;95409.84;;;18.49;46.58
57594;BME280;43423;46.510;6.686;2023-03-13T14:12:38;95387.38;;;18.39;46.67
57594;BME280;43423;46.510;6.686;2023-03-13T14:15:17;95377.75;;;18.25;47.54
57594;BME280;43423;46.510;6.686;2023-03-13T14:17:50;95380.53;;;18.18;47.25
57594;BME280;43423;46.510;6.686;2023-03-13T14:20:21;95379.41;;;18.51;47.41
57594;BME280;43423;46.510;6.686;2023-03-13T14:22:49;95369.94;;;18.31;45.93
57594;BME280;43423;46.510;6.686;2023-03-13T14:25:16;95354.38;;;18.36;46.13
57594;BME280;43423;46.510;6.686;2023-03-13T14:27:42;95346.75;;;18.13;47.29
57594;BME280;43423;46.510;6.686;2023-03-13T14:30:10;95330.25;;;18.16;46.21
57594;BME280;43423;46.510;6.686;2023-03-13T14:32:36;95321.38;;;18.25;45.73
57594;BME280;43423;46.510;6.686;2023-03-13T14:35:04;95314.66;;;18.43;46.63
57594;BME280;43423;46.510;6.686;2023-03-13T14:37:40;95303.50;;;18.58;47.40
57594;BME280;43423;46.510;6.686;2023-03-13T14:40:26;95306.47;;;18.53;44.94